sensor_id;sensor_type;location;lat;lon;timestamp;pressure;altitude;pressure_sealevel;temperature;humidity
81274;BME280;70753;47.908;11.274;2023-06-26T00:00:37;94880.19;;;21.67;40.98
81274;BME280;70753;47.908;11.274;2023-06-26T00:03:02;94880.03;;;21.60;41.56
81274;BME280;70753;47.908;11.274;2023-06-26T00:05:29;94877.47;;;21.67;41.68
81274;BME280;70753;47.908;11.274;2023-06-26T00:07:55;94875.47;;;21.64;41.96
81274;BME280;70753;47.908;11.274;2023-06-26T00:10:21;94880.97;;;21.68;41.73
81274;BME280;70753;47.908;11.274;2023-06-26T00:12:46;94879.22;;;21.60;41.78
81274;BME280;70753;47.908;11.274;2023-06-26T00:15:11;94881.94;;;21.60;42.00
81274;BME280;70753;47.908;11.274;2023-06-26T00:17:37;94885.25;;;21.53;42.02
81274;BME280;70753;47.908;11.274;2023-06-26T00:20:03;94882.09;;;21.51;42.38
81274;BME280;70753;47.908;11.274;2023-06-26T00:22:30;94881.38;;;21.54;42.35
81274;BME280;70753;47.908;11.274;2023-06-26T00:24:56;94875.28;;;21.57;42.32
81274;BME280;70753;47.908;11.274;2023-06-26T00:27:21;94877.81;;;21.50;42.16
81274;BME280;70753;47.908;11.274;2023-06-26T00:29:47;94886.09;;;21.26;43.05
81274;BME280;70753;47.908;11.274;2023-06-26T00:32:12;94889.25;;;21.28;43.02
81274;BME280;70753;47.908;11.274;2023-06-26T00:34:38;94881.56;;;21.30;42.93
81274;BME280;70753;47.908;11.274;2023-06-26T00:37:04;94883.63;;;21.21;43.06
81274;BME280;70753;47.908;11.274;2023-06-26T00:39:32;94885.91;;;21.19;43.55
81274;BME280;70753;47.908;11.274;2023-06-26T00:41:57;94882.75;;;21.17;43.77
81274;BME280;70753;47.908;11.274;2023-06-26T00:44:23;94878.41;;;21.28;43.66
81274;BME280;70753;47.908;11.274;2023-06-26T00:46:48;94873.56;;;21.21;43.76
81274;BME280;70753;47.908;11.274;2023-06-26T00:49:14;94873.66;;;21.25;43.62
81274;BME280;70753;47.908;11.274;2023-06-26T00:51:40;94878.84;;;21.30;43.75
81274;BME280;70753;47.908;11.274;2023-06-26T00:54:06;94880.72;;;21.14;44.30
81274;BME280;70753;47.908;11.274;2023-06-26T00:56:34;94878.50;;;21.04;44.21
81274;BME280;70753;47.908;11.274;2023-06-26T00:59:00;94882.34;;;21.03;44.72
81274;BME280;70753;47.908;11.274;2023-06-26T01:01:25;94881.66;;;21.06;44.56
81274;BME280;70753;47.908;11.274;2023-06-26T01:03:51;94880.63;;;20.98;44.64
81274;BME280;70753;47.908;11.274;2023-06-26T01:06:19;94884.19;;;20.87;44.79
81274;BME280;70753;47.908;11.274;2023-06-26T01:08:45;94876.31;;;20.82;45.15
81274;BME280;70753;47.908;11.274;2023-06-26T01:11:11;94877.91;;;20.83;45.23
81274;BME280;70753;47.908;11.274;2023-06-26T01:13:38;94873.09;;;20.64;45.60
81274;BME280;70753;47.908;11.274;2023-06-26T01:16:05;94883.25;;;20.67;45.33
81274;BME280;70753;47.908;11.274;2023-06-26T01:18:30;94881.78;;;20.57;45.77
81274;BME280;70753;47.908;11.274;2023-06-26T01:20:57;94880.09;;;20.53;46.00
81274;BME280;70753;47.908;11.274;2023-06-26T01:23:30;94882.00;;;20.64;45.58
81274;BME280;70753;47.908;11.274;2023-06-26T01:26:11;94879.31;;;20.64;45.75
81274;BME280;70753;47.908;11.274;2023-06-26T01:28:39;94874.44;;;20.70;45.72
81274;BME280;70753;47.908;11.274;2023-06-26T01:31:07;94865.16;;;20.71;45.58
81274;BME280;70753;47.908;11.274;2023-06-26T01:33:32;94872.75;;;20.66;45.74
81274;BME280;70753;47.908;11.274;2023-06-26T01:35:58;94867.63;;;20.48;46.03
81274;BME280;70753;47.908;11.274;2023-06-26T01:38:24;94873.22;;;20.55;46.15
81274;BME280;70753;47.908;11.274;2023-06-26T01:40:50;94865.97;;;20.59;46.18
81274;BME280;70753;47.908;11.274;2023-06-26T01:43:20;94863.84;;;20.53;46.50
81274;BME280;70753;47.908;11.274;2023-06-26T01:45:50;94870.06;;;20.53;46.63
81274;BME280;70753;47.908;11.274;2023-06-26T01:48:16;94866.13;;;20.51;46.67
81274;BME280;70753;47.908;11.274;2023-06-26T01:50:46;94866.97;;;20.39;47.24
81274;BME280;70753;47.908;11.274;2023-06-26T01:53:13;94861.75;;;20.34;47.59
81274;BME280;70753;47.908;11.274;2023-06-26T01:55:44;94864.38;;;20.31;47.75
81274;BME280;70753;47.908;11.274;2023-06-26T01:58:11;94858.63;;;20.32;47.88
81274;BME280;70753;47.908;11.274;2023-06-26T02:00:40;94866.28;;;20.30;48.06
81274;BME280;70753;47.908;11.274;2023-06-26T02:03:05;94863.34;;;20.35;48.42
81274;BME280;70753;47.908;11.274;2023-06-26T02:05:31;94868.47;;;20.25;49.20
81274;BME280;70753;47.908;11.274;2023-06-26T02:07:56;94873.16;;;20.28;49.71
81274;BME280;70753;47.908;11.274;2023-06-26T02:10:21;94871.47;;;20.23;50.07
81274;BME280;70753;47.908;11.274;2023-06-26T02:12:47;94872.47;;;20.19;50.19
81274;BME280;70753;47.908;11.274;2023-06-26T02:15:12;94873.97;;;20.28;49.96
81274;BME280;70753;47.908;11.274;2023-06-26T02:17:39;94876.91;;;20.23;50.14
81274;BME280;70753;47.908;11.274;2023-06-26T02:20:05;94870.56;;;20.19;50.62
81274;BME280;70753;47.908;11.274;2023-06-26T02:22:31;94872.72;;;20.14;50.96
81274;BME280;70753;47.908;11.274;2023-06-26T02:24:57;94880.25;;;20.08;51.36
81274;BME280;70753;47.908;11.274;2023-06-26T02:27:22;94878.47;;;20.00;51.70
81274;BME280;70753;47.908;11.274;2023-06-26T02:29:47;94879.50;;;20.08;51.75
81274;BME280;70753;47.908;11.274;2023-06-26T02:32:13;94880.97;;;20.05;51.94
81274;BME280;70753;47.908;11.274;2023-06-26T02:34:40;94882.06;;;20.04;51.87
81274;BME280;70753;47.908;11.274;2023-06-26T02:37:06;94880.25;;;20.08;51.82
81274;BME280;70753;47.908;11.274;2023-06-26T02:39:31;94879.81;;;20.06;51.94
81274;BME280;70753;47.908;11.274;2023-06-26T02:41:57;94879.16;;;19.97;52.24
81274;BME280;70753;47.908;11.274;2023-06-26T02:44:22;94878.38;;;19.97;52.06
81274;BME280;70753;47.908;11.274;2023-06-26T02:46:48;94885.91;;;19.79;52.51
81274;BME280;70753;47.908;11.274;2023-06-26T02:49:13;94886.59;;;19.88;51.96
81274;BME280;70753;47.908;11.274;2023-06-26T02:51:40;94880.50;;;19.91;51.49
81274;BME280;70753;47.908;11.274;2023-06-26T02:54:05;94879.38;;;19.92;51.03
81274;BME280;70753;47.908;11.274;2023-06-26T02:56:31;94883.22;;;19.79;51.08
81274;BME280;70753;47.908;11.274;2023-06-26T02:58:56;94889.53;;;19.83;50.69
81274;BME280;70753;47.908;11.274;2023-06-26T03:01:22;94880.75;;;19.86;50.91
81274;BME280;70753;47.908;11.274;2023-06-26T03:03:47;94885.47;;;19.89;50.52
81274;BME280;70753;47.908;11.274;2023-06-26T03:06:13;94883.44;;;19.86;50.36
81274;BME280;70753;47.908;11.274;2023-06-26T03:08:40;94888.84;;;19.86;50.38
81274;BME280;70753;47.908;11.274;2023-06-26T03:11:06;94877.91;;;19.82;49.75
81274;BME280;70753;47.908;11.274;2023-06-26T03:13:32;94879.38;;;19.92;49.83
81274;BME280;70753;47.908;11.274;2023-06-26T03:15:58;94882.41;;;19.78;50.11
81274;BME280;70753;47.908;11.274;2023-06-26T03:18:23;94876.00;;;19.71;49.92
81274;BME280;70753;47.908;11.274;2023-06-26T03:20:48;94876.66;;;19.80;49.46
81274;BME280;70753;47.908;11.274;2023-06-26T03:23:14;94870.34;;;19.76;49.66
81274;BME280;70753;47.908;11.274;2023-06-26T03:25:41;94886.25;;;19.77;49.45
81274;BME280;70753;47.908;11.274;2023-06-26T03:28:06;94882.41;;;19.78;49.23
81274;BME280;70753;47.908;11.274;2023-06-26T03:30:31;94874.53;;;19.73;49.21
81274;BME280;70753;47.908;11.274;2023-06-26T03:32:57;94883.22;;;19.79;48.92
81274;BME280;70753;47.908;11.274;2023-06-26T03:35:22;94887.69;;;19.63;49.49
81274;BME280;70753;47.908;11.274;2023-06-26T03:37:48;94879.03;;;19.69;48.93
81274;BME280;70753;47.908;11.274;2023-06-26T03:40:14;94880.72;;;19.74;48.99
81274;BME280;70753;47.908;11.274;2023-06-26T03:42:41;94886.13;;;19.50;49.29
81274;BME280;70753;47.908;11.274;2023-06-26T03:45:06;94886.03;;;19.58;48.84
81274;BME280;70753;47.908;11.274;2023-06-26T03:47:32;94879.81;;;19.58;49.66
81274;BME280;70753;47.908;11.274;2023-06-26T03:49:57;94882.53;;;19.58;48.61
81274;BME280;70753;47.908;11.274;2023-06-26T03:52:23;94885.09;;;19.54;49.19
81274;BME280;70753;47.908;11.274;2023-06-26T03:54:48;94878.69;;;19.59;49.33
81274;BME280;70753;47.908;11.274;2023-06-26T03:57:14;94874.16;;;19.63;49.01
81274;BME280;70753;47.908;11.274;2023-06-26T03:59:41;94880.28;;;19.72;49.21
81274;BME280;70753;47.908;11.274;2023-06-26T04:02:06;94881.41;;;19.71;49.08
81274;BME280;70753;47.908;11.274;2023-06-26T04:04:31;94883.09;;;19.75;48.98
81274;BME280;70753;47.908;11.274;2023-06-26T04:06:57;94878.81;;;19.86;48.92
81274;BME280;70753;47.908;11.274;2023-06-26T04:09:23;94882.53;;;19.94;49.13
81274;BME280;70753;47.908;11.274;2023-06-26T04:11:49;94883.44;;;19.98;49.11
81274;BME280;70753;47.908;11.274;2023-06-26T04:14:14;94884.59;;;19.97;49.18
81274;BME280;70753;47.908;11.274;2023-06-26T04:16:41;94885.22;;;20.06;49.26
81274;BME280;70753;47.908;11.274;2023-06-26T04:19:08;94879.81;;;20.18;48.72
81274;BME280;70753;47.908;11.274;2023-06-26T04:21:33;94877.25;;;20.22;49.13
81274;BME280;70753;47.908;11.274;2023-06-26T04:23:58;94884.34;;;20.26;49.10
81274;BME280;70753;47.908;11.274;2023-06-26T04:26:25;94889.53;;;20.31;49.35
81274;BME280;70753;47.908;11.274;2023-06-26T04:28:50;94883.78;;;20.33;48.87
81274;BME280;70753;47.908;11.274;2023-06-26T04:31:17;94879.59;;;20.35;49.59
81274;BME280;70753;47.908;11.274;2023-06-26T04:33:44;94884.53;;;20.45;49.60
81274;BME280;70753;47.908;11.274;2023-06-26T04:36:10;94888.22;;;20.53;49.05
81274;BME280;70753;47.908;11.274;2023-06-26T04:38:35;94889.53;;;19.83;49.90
81274;BME280;70753;47.908;11.274;2023-06-26T04:41:01;94880.97;;;20.29;48.73
81274;BME280;70753;47.908;11.274;2023-06-26T04:43:26;94885.69;;;20.32;49.29
81274;BME280;70753;47.908;11.274;2023-06-26T04:45:52;94885.69;;;20.32;49.34
81274;BME280;70753;47.908;11.274;2023-06-26T04:48:17;94884.78;;;20.04;49.53
81274;BME280;70753;47.908;11.274;2023-06-26T04:50:46;94880.72;;;19.98;49.91
81274;BME280;70753;47.908;11.274;2023-06-26T04:53:12;94880.91;;;20.53;48.98
81274;BME280;70753;47.908;11.274;2023-06-26T04:55:37;94880.75;;;20.74;48.74
81274;BME280;70753;47.908;11.274;2023-06-26T04:58:03;94878.06;;;20.90;48.11
81274;BME280;70753;47.908;11.274;2023-06-26T05:00:28;94874.03;;;20.84;48.92
81274;BME280;70753;47.908;11.274;2023-06-26T05:02:53;94883.38;;;20.58;49.93
81274;BME280;70753;47.908;11.274;2023-06-26T05:05:19;94882.75;;;20.25;51.67
81274;BME280;70753;47.908;11.274;2023-06-26T05:07:46;94879.50;;;20.72;50.68
81274;BME280;70753;47.908;11.274;2023-06-26T05:10:11;94877.75;;;20.51;51.00
81274;BME280;70753;47.908;11.274;2023-06-26T05:12:36;94883.78;;;21.00;49.83
81274;BME280;70753;47.908;11.274;2023-06-26T05:15:02;94885.69;;;21.12;49.82
81274;BME280;70753;47.908;11.274;2023-06-26T05:17:29;94876.72;;;20.96;47.77
81274;BME280;70753;47.908;11.274;2023-06-26T05:19:54;94885.16;;;20.94;47.83
81274;BME280;70753;47.908;11.274;2023-06-26T05:22:20;94878.66;;;21.23;47.54
81274;BME280;70753;47.908;11.274;2023-06-26T05:24:47;94883.50;;;21.45;47.58
81274;BME280;70753;47.908;11.274;2023-06-26T05:27:13;94881.91;;;21.44;47.90
81274;BME280;70753;47.908;11.274;2023-06-26T05:29:39;94883.09;;;21.90;47.61
81274;BME280;70753;47.908;11.274;2023-06-26T05:32:06;94872.56;;;22.20;46.88
81274;BME280;70753;47.908;11.274;2023-06-26T05:34:32;94887.59;;;22.33;46.20
81274;BME280;70753;47.908;11.274;2023-06-26T05:36:58;94880.13;;;22.61;44.57
81274;BME280;70753;47.908;11.274;2023-06-26T05:39:24;94885.75;;;22.37;44.94
81274;BME280;70753;47.908;11.274;2023-06-26T05:41:52;94875.81;;;22.44;43.86
81274;BME280;70753;47.908;11.274;2023-06-26T05:44:17;94881.00;;;21.99;44.40
81274;BME280;70753;47.908;11.274;2023-06-26T05:46:43;94873.69;;;22.53;44.17
81274;BME280;70753;47.908;11.274;2023-06-26T05:49:08;94883.00;;;22.87;43.32
81274;BME280;70753;47.908;11.274;2023-06-26T05:51:34;94875.41;;;22.96;43.48
81274;BME280;70753;47.908;11.274;2023-06-26T05:54:00;94876.81;;;23.09;43.50
81274;BME280;70753;47.908;11.274;2023-06-26T05:56:26;94889.19;;;23.26;43.12
81274;BME280;70753;47.908;11.274;2023-06-26T05:58:54;94876.09;;;23.31;43.09
81274;BME280;70753;47.908;11.274;2023-06-26T06:01:20;94876.13;;;23.54;43.19
81274;BME280;70753;47.908;11.274;2023-06-26T06:03:46;94871.44;;;23.74;43.87
81274;BME280;70753;47.908;11.274;2023-06-26T06:06:11;94881.28;;;23.82;44.21
81274;BME280;70753;47.908;11.274;2023-06-26T06:08:37;94873.25;;;23.89;43.63
81274;BME280;70753;47.908;11.274;2023-06-26T06:11:03;94883.22;;;24.04;43.42
81274;BME280;70753;47.908;11.274;2023-06-26T06:13:28;94881.03;;;24.09;43.89
81274;BME280;70753;47.908;11.274;2023-06-26T06:15:55;94872.63;;;24.21;44.03
81274;BME280;70753;47.908;11.274;2023-06-26T06:18:21;94874.53;;;24.17;44.16
81274;BME280;70753;47.908;11.274;2023-06-26T06:20:46;94876.03;;;24.15;43.67
81274;BME280;70753;47.908;11.274;2023-06-26T06:23:12;94876.00;;;24.11;44.42
81274;BME280;70753;47.908;11.274;2023-06-26T06:25:37;94872.59;;;24.18;44.15
81274;BME280;70753;47.908;11.274;2023-06-26T06:28:04;94874.31;;;24.29;44.23
81274;BME280;70753;47.908;11.274;2023-06-26T06:30:29;94879.19;;;24.17;44.84
81274;BME280;70753;47.908;11.274;2023-06-26T06:32:57;94881.59;;;24.22;44.54
81274;BME280;70753;47.908;11.274;2023-06-26T06:35:22;94873.03;;;23.75;46.41
81274;BME280;70753;47.908;11.274;2023-06-26T06:37:47;94874.78;;;24.09;45.03
81274;BME280;70753;47.908;11.274;2023-06-26T06:40:13;94875.31;;;24.18;45.61
81274;BME280;70753;47.908;11.274;2023-06-26T06:42:38;94871.97;;;24.28;45.69
81274;BME280;70753;47.908;11.274;2023-06-26T06:45:05;94886.22;;;24.18;46.37
81274;BME280;70753;47.908;11.274;2023-06-26T06:47:32;94880.56;;;24.30;45.45
81274;BME280;70753;47.908;11.274;2023-06-26T06:50:00;94871.53;;;24.26;46.42
81274;BME280;70753;47.908;11.274;2023-06-26T06:52:25;94880.28;;;24.12;46.55
81274;BME280;70753;47.908;11.274;2023-06-26T06:54:51;94878.06;;;23.99;47.85
81274;BME280;70753;47.908;11.274;2023-06-26T06:57:37;94871.72;;;24.40;46.97
81274;BME280;70753;47.908;11.274;2023-06-26T07:00:03;94868.56;;;24.64;46.22
81274;BME280;70753;47.908;11.274;2023-06-26T07:02:28;94865.00;;;24.86;45.98
81274;BME280;70753;47.908;11.274;2023-06-26T07:04:55;94871.81;;;24.99;45.18
81274;BME280;70753;47.908;11.274;2023-06-26T07:07:22;94868.09;;;25.15;44.54
81274;BME280;70753;47.908;11.274;2023-06-26T07:09:47;94865.75;;;25.17;45.61
81274;BME280;70753;47.908;11.274;2023-06-26T07:12:13;94868.22;;;25.29;45.81
81274;BME280;70753;47.908;11.274;2023-06-26T07:14:38;94867.50;;;25.32;45.83
81274;BME280;70753;47.908;11.274;2023-06-26T07:17:04;94862.75;;;25.25;45.75
81274;BME280;70753;47.908;11.274;2023-06-26T07:19:29;94868.47;;;25.50;45.77
81274;BME280;70753;47.908;11.274;2023-06-26T07:21:54;94869.44;;;25.68;42.22
81274;BME280;70753;47.908;11.274;2023-06-26T07:24:22;94869.22;;;25.87;43.29
81274;BME280;70753;47.908;11.274;2023-06-26T07:26:47;94860.56;;;26.22;41.03
81274;BME280;70753;47.908;11.274;2023-06-26T07:29:13;94859.16;;;26.45;39.29
81274;BME280;70753;47.908;11.274;2023-06-26T07:31:38;94856.47;;;26.52;39.38
81274;BME280;70753;47.908;11.274;2023-06-26T07:34:04;94865.63;;;26.78;39.43
81274;BME280;70753;47.908;11.274;2023-06-26T07:36:29;94857.84;;;26.80;39.49
81274;BME280;70753;47.908;11.274;2023-06-26T07:38:55;94863.44;;;27.08;39.22
81274;BME280;70753;47.908;11.274;2023-06-26T07:41:22;94860.38;;;27.27;37.91
81274;BME280;70753;47.908;11.274;2023-06-26T07:43:48;94857.25;;;27.25;38.60
81274;BME280;70753;47.908;11.274;2023-06-26T07:46:13;94857.31;;;27.46;38.25
81274;BME280;70753;47.908;11.274;2023-06-26T07:48:40;94866.31;;;27.50;38.23
81274;BME280;70753;47.908;11.274;2023-06-26T07:51:05;94859.28;;;27.56;37.72
81274;BME280;70753;47.908;11.274;2023-06-26T07:53:31;94856.59;;;27.70;37.33
81274;BME280;70753;47.908;11.274;2023-06-26T07:55:56;94863.22;;;27.73;37.17
81274;BME280;70753;47.908;11.274;2023-06-26T07:58:23;94856.59;;;27.88;37.43
81274;BME280;70753;47.908;11.274;2023-06-26T08:00:49;94854.28;;;28.00;37.73
81274;BME280;70753;47.908;11.274;2023-06-26T08:03:14;94851.13;;;27.98;36.46
81274;BME280;70753;47.908;11.274;2023-06-26T08:05:40;94856.25;;;28.00;36.87
81274;BME280;70753;47.908;11.274;2023-06-26T08:08:06;94848.81;;;28.11;36.91
81274;BME280;70753;47.908;11.274;2023-06-26T08:10:32;94852.72;;;28.35;35.65
81274;BME280;70753;47.908;11.274;2023-06-26T08:12:59;94843.28;;;28.46;35.77
81274;BME280;70753;47.908;11.274;2023-06-26T08:15:25;94851.13;;;28.41;34.10
81274;BME280;70753;47.908;11.274;2023-06-26T08:17:51;94845.25;;;28.60;34.11
81274;BME280;70753;47.908;11.274;2023-06-26T08:20:16;94846.41;;;28.62;32.98
81274;BME280;70753;47.908;11.274;2023-06-26T08:22:42;94852.69;;;28.42;33.10
81274;BME280;70753;47.908;11.274;2023-06-26T08:25:08;94852.66;;;28.52;33.82
81274;BME280;70753;47.908;11.274;2023-06-26T08:27:33;94857.00;;;28.64;32.97
81274;BME280;70753;47.908;11.274;2023-06-26T08:29:59;94845.59;;;28.55;33.77
81274;BME280;70753;47.908;11.274;2023-06-26T08:32:26;94838.44;;;29.00;33.26
81274;BME280;70753;47.908;11.274;2023-06-26T08:34:52;94836.84;;;29.16;34.03
81274;BME280;70753;47.908;11.274;2023-06-26T08:37:17;94843.78;;;29.38;32.88
81274;BME280;70753;47.908;11.274;2023-06-26T08:39:43;94837.41;;;29.55;32.15
81274;BME280;70753;47.908;11.274;2023-06-26T08:42:09;94842.91;;;29.55;30.68
81274;BME280;70753;47.908;11.274;2023-06-26T08:44:34;94838.00;;;29.19;31.05
81274;BME280;70753;47.908;11.274;2023-06-26T08:47:00;94844.66;;;29.25;30.87
81274;BME280;70753;47.908;11.274;2023-06-26T08:49:36;94840.66;;;29.36;30.86
81274;BME280;70753;47.908;11.274;2023-06-26T08:52:13;94846.03;;;29.57;30.85
81274;BME280;70753;47.908;11.274;2023-06-26T08:54:45;94841.75;;;29.49;30.34
81274;BME280;70753;47.908;11.274;2023-06-26T08:57:11;94841.13;;;29.24;31.33
81274;BME280;70753;47.908;11.274;2023-06-26T08:59:37;94839.06;;;29.46;30.39
81274;BME280;70753;47.908;11.274;2023-06-26T09:02:04;94839.78;;;29.53;29.98
81274;BME280;70753;47.908;11.274;2023-06-26T09:04:31;94834.97;;;29.68;28.85
81274;BME280;70753;47.908;11.274;2023-06-26T09:06:57;94826.91;;;29.40;30.67
81274;BME280;70753;47.908;11.274;2023-06-26T09:09:22;94826.34;;;29.66;31.37
81274;BME280;70753;47.908;11.274;2023-06-26T09:11:48;94825.78;;;29.96;30.63
81274;BME280;70753;47.908;11.274;2023-06-26T09:14:14;94833.03;;;29.65;29.42
81274;BME280;70753;47.908;11.274;2023-06-26T09:16:40;94835.00;;;29.65;28.85
81274;BME280;70753;47.908;11.274;2023-06-26T09:19:08;94826.34;;;29.66;29.60
81274;BME280;70753;47.908;11.274;2023-06-26T09:21:35;94814.47;;;29.87;29.58
81274;BME280;70753;47.908;11.274;2023-06-26T09:24:01;94822.09;;;30.13;29.17
81274;BME280;70753;47.908;11.274;2023-06-26T09:26:26;94821.22;;;30.23;28.22
81274;BME280;70753;47.908;11.274;2023-06-26T09:28:52;94823.56;;;30.24;27.83
81274;BME280;70753;47.908;11.274;2023-06-26T09:31:17;94826.16;;;29.98;27.82
81274;BME280;70753;47.908;11.274;2023-06-26T09:33:43;94820.81;;;29.73;28.96
81274;BME280;70753;47.908;11.274;2023-06-26T09:36:18;94807.94;;;30.14;28.09
81274;BME280;70753;47.908;11.274;2023-06-26T09:38:47;94816.44;;;30.34;28.01
81274;BME280;70753;47.908;11.274;2023-06-26T09:41:15;94824.44;;;30.14;28.57
81274;BME280;70753;47.908;11.274;2023-06-26T09:43:45;94823.13;;;30.26;28.97
81274;BME280;70753;47.908;11.274;2023-06-26T09:46:15;94811.19;;;30.47;28.07
81274;BME280;70753;47.908;11.274;2023-06-26T09:48:40;94811.69;;;30.35;27.93
81274;BME280;70753;47.908;11.274;2023-06-26T09:51:06;94813.94;;;30.47;28.78
81274;BME280;70753;47.908;11.274;2023-06-26T09:53:34;94813.53;;;30.48;27.96
81274;BME280;70753;47.908;11.274;2023-06-26T09:56:05;94818.03;;;30.28;29.02
81274;BME280;70753;47.908;11.274;2023-06-26T09:58:31;94810.97;;;30.27;28.49
81274;BME280;70753;47.908;11.274;2023-06-26T10:00:57;94805.16;;;30.18;27.70
81274;BME280;70753;47.908;11.274;2023-06-26T10:03:24;94803.97;;;30.19;27.11
81274;BME280;70753;47.908;11.274;2023-06-26T10:05:49;94800.59;;;30.45;27.26
81274;BME280;70753;47.908;11.274;2023-06-26T10:08:16;94800.25;;;30.77;27.05
81274;BME280;70753;47.908;11.274;2023-06-26T10:10:43;94787.16;;;30.84;27.29
81274;BME280;70753;47.908;11.274;2023-06-26T10:13:16;94792.19;;;30.96;26.46
81274;BME280;70753;47.908;11.274;2023-06-26T10:15:46;94795.38;;;30.91;26.07
81274;BME280;70753;47.908;11.274;2023-06-26T10:18:13;94797.81;;;30.82;25.81
81274;BME280;70753;47.908;11.274;2023-06-26T10:20:41;94797.25;;;30.64;26.87
81274;BME280;70753;47.908;11.274;2023-06-26T10:23:08;94791.34;;;30.99;26.62
81274;BME280;70753;47.908;11.274;2023-06-26T10:25:37;94788.06;;;31.12;26.77
81274;BME280;70753;47.908;11.274;2023-06-26T10:28:05;94795.75;;;31.54;25.26
81274;BME280;70753;47.908;11.274;2023-06-26T10:30:35;94789.78;;;31.59;25.35
81274;BME280;70753;47.908;11.274;2023-06-26T10:33:02;94786.09;;;31.39;25.77
81274;BME280;70753;47.908;11.274;2023-06-26T10:35:28;94780.31;;;31.60;25.74
81274;BME280;70753;47.908;11.274;2023-06-26T10:38:00;94787.34;;;32.14;25.23
81274;BME280;70753;47.908;11.274;2023-06-26T10:40:27;94786.53;;;32.60;24.72
81274;BME280;70753;47.908;11.274;2023-06-26T10:43:05;94778.56;;;32.85;24.57
81274;BME280;70753;47.908;11.274;2023-06-26T10:45:34;94777.88;;;33.72;23.46
81274;BME280;70753;47.908;11.274;2023-06-26T10:48:00;94780.66;;;33.56;23.58
81274;BME280;70753;47.908;11.274;2023-06-26T10:50:30;94784.81;;;34.13;23.03
81274;BME280;70753;47.908;11.274;2023-06-26T10:53:13;94790.56;;;34.66;21.63
81274;BME280;70753;47.908;11.274;2023-06-26T10:55:41;94779.47;;;34.38;22.18
81274;BME280;70753;47.908;11.274;2023-06-26T10:58:26;94779.19;;;33.84;23.19
81274;BME280;70753;47.908;11.274;2023-06-26T11:01:14;94788.81;;;33.44;23.68
81274;BME280;70753;47.908;11.274;2023-06-26T11:03:40;94778.59;;;34.25;22.79
81274;BME280;70753;47.908;11.274;2023-06-26T11:06:09;94773.47;;;34.84;22.20
81274;BME280;70753;47.908;11.274;2023-06-26T11:08:43;94773.56;;;35.88;20.97
81274;BME280;70753;47.908;11.274;2023-06-26T11:11:09;94768.91;;;36.92;20.12
81274;BME280;70753;47.908;11.274;2023-06-26T11:13:35;94765.56;;;37.49;19.31
81274;BME280;70753;47.908;11.274;2023-06-26T11:16:02;94772.56;;;36.54;20.14
81274;BME280;70753;47.908;11.274;2023-06-26T11:18:29;94783.72;;;35.41;20.83
81274;BME280;70753;47.908;11.274;2023-06-26T11:21:04;94779.59;;;34.63;21.67
81274;BME280;70753;47.908;11.274;2023-06-26T11:23:31;94777.81;;;35.26;21.40
81274;BME280;70753;47.908;11.274;2023-06-26T11:25:57;94785.31;;;36.05;20.89
81274;BME280;70753;47.908;11.274;2023-06-26T11:28:23;94775.66;;;35.59;21.38
81274;BME280;70753;47.908;11.274;2023-06-26T11:30:48;94780.06;;;36.19;20.75
81274;BME280;70753;47.908;11.274;2023-06-26T11:33:16;94772.91;;;36.56;19.51
81274;BME280;70753;47.908;11.274;2023-06-26T11:35:42;94771.06;;;36.97;19.52
81274;BME280;70753;47.908;11.274;2023-06-26T11:38:07;94773.59;;;37.47;19.15
81274;BME280;70753;47.908;11.274;2023-06-26T11:40:33;94764.75;;;38.10;18.52
81274;BME280;70753;47.908;11.274;2023-06-26T11:42:59;94770.28;;;38.68;18.15
81274;BME280;70753;47.908;11.274;2023-06-26T11:45:25;94778.53;;;37.43;19.15
81274;BME280;70753;47.908;11.274;2023-06-26T11:47:51;94773.84;;;36.97;19.96
81274;BME280;70753;47.908;11.274;2023-06-26T11:50:18;94763.22;;;36.82;20.32
81274;BME280;70753;47.908;11.274;2023-06-26T11:52:43;94764.63;;;38.31;19.11
81274;BME280;70753;47.908;11.274;2023-06-26T11:55:09;94761.88;;;39.22;18.70
81274;BME280;70753;47.908;11.274;2023-06-26T11:57:34;94749.69;;;39.70;16.84
81274;BME280;70753;47.908;11.274;2023-06-26T12:00:10;94764.66;;;39.82;17.37
81274;BME280;70753;47.908;11.274;2023-06-26T12:02:36;94763.72;;;39.94;16.82
81274;BME280;70753;47.908;11.274;2023-06-26T12:05:02;94765.78;;;39.16;16.69
81274;BME280;70753;47.908;11.274;2023-06-26T12:07:29;94748.75;;;37.92;18.16
81274;BME280;70753;47.908;11.274;2023-06-26T12:09:55;94766.66;;;37.30;19.06
81274;BME280;70753;47.908;11.274;2023-06-26T12:12:21;94758.75;;;36.63;19.83
81274;BME280;70753;47.908;11.274;2023-06-26T12:14:48;94757.31;;;36.25;20.24
81274;BME280;70753;47.908;11.274;2023-06-26T12:17:14;94757.66;;;35.76;20.23
81274;BME280;70753;47.908;11.274;2023-06-26T12:19:43;94755.69;;;35.77;20.38
81274;BME280;70753;47.908;11.274;2023-06-26T12:22:09;94752.13;;;35.64;20.65
81274;BME280;70753;47.908;11.274;2023-06-26T12:24:37;94754.13;;;35.76;21.09
81274;BME280;70753;47.908;11.274;2023-06-26T12:27:07;94752.56;;;35.75;20.42
81274;BME280;70753;47.908;11.274;2023-06-26T12:29:33;94756.81;;;35.67;20.84
81274;BME280;70753;47.908;11.274;2023-06-26T12:31:59;94752.97;;;35.35;21.03
81274;BME280;70753;47.908;11.274;2023-06-26T12:34:28;94758.31;;;35.42;21.21
81274;BME280;70753;47.908;11.274;2023-06-26T12:36:53;94753.13;;;35.70;21.59
81274;BME280;70753;47.908;11.274;2023-06-26T12:39:20;94768.94;;;35.31;21.50
81274;BME280;70753;47.908;11.274;2023-06-26T12:41:48;94757.25;;;35.78;20.85
81274;BME280;70753;47.908;11.274;2023-06-26T12:44:18;94749.09;;;35.33;21.13
81274;BME280;70753;47.908;11.274;2023-06-26T12:46:46;94752.88;;;34.85;21.57